createdAt,value
2018-06-13T00:01:03.962Z,88.29
2018-06-13T00:03:30.959Z,89.31
2018-06-13T00:05:58.081Z,89.02
2018-06-13T00:08:25.973Z,88.25
2018-06-13T00:10:53.065Z,88.20
2018-06-13T00:13:20.137Z,87.65
2018-06-13T00:15:47.246Z,87.80
2018-06-13T00:18:14.336Z,88.54
2018-06-13T00:20:41.386Z,88.46
2018-06-13T00:23:08.489Z,88.31
2018-06-13T00:25:35.603Z,88.51
2018-06-13T00:28:02.618Z,88.34
2018-06-13T00:30:29.645Z,88.39
2018-06-13T00:32:56.666Z,88.53
2018-06-13T00:35:23.676Z,88.78
2018-06-13T00:37:50.690Z,89.25
2018-06-13T00:40:18.114Z,89.86
2018-06-13T00:42:45.137Z,90.23
2018-06-13T00:45:12.150Z,90.43
2018-06-13T00:47:39.249Z,90.60
2018-06-13T00:50:06.295Z,90.81
2018-06-13T00:52:33.401Z,90.71
2018-06-13T00:55:00.409Z,91.36
2018-06-13T00:57:27.521Z,91.63
2018-06-13T00:59:54.702Z,91.76
2018-06-13T01:02:21.787Z,92.13
2018-06-13T01:04:48.817Z,92.11
2018-06-13T01:07:15.914Z,91.69
2018-06-13T01:09:43.010Z,91.72
2018-06-13T01:12:10.134Z,91.86
2018-06-13T01:14:37.142Z,92.53
2018-06-13T01:17:04.259Z,92.87
2018-06-13T01:19:31.364Z,92.70
2018-06-13T01:21:58.367Z,92.17
2018-06-13T01:24:25.386Z,92.10
2018-06-13T01:26:52.489Z,92.18
2018-06-13T01:29:19.610Z,92.67
2018-06-13T01:31:46.728Z,91.96
2018-06-13T01:34:13.809Z,91.91
2018-06-13T01:36:40.854Z,91.69
2018-06-13T01:39:07.942Z,92.11
2018-06-13T01:41:34.965Z,92.24
2018-06-13T01:44:02.127Z,91.96
2018-06-13T01:46:29.221Z,91.83
2018-06-13T01:48:56.255Z,91.79
2018-06-13T01:51:23.288Z,90.58
2018-06-13T01:53:50.293Z,90.66
2018-06-13T01:56:17.337Z,91.35
2018-06-13T01:58:44.426Z,90.91
2018-06-13T02:01:11.445Z,91.27
2018-06-13T02:03:38.781Z,91.14
2018-06-13T02:06:05.785Z,91.35
2018-06-13T02:08:32.785Z,91.04
2018-06-13T02:10:59.806Z,90.68
2018-06-13T02:13:26.815Z,90.84
2018-06-13T02:15:53.817Z,90.68
2018-06-13T02:18:20.814Z,90.64
2018-06-13T02:20:47.865Z,90.62
2018-06-13T02:23:14.901Z,90.25
2018-06-13T02:25:41.988Z,89.96
2018-06-13T02:28:08.995Z,89.16
2018-06-13T02:30:36.009Z,88.74
2018-06-13T02:33:03.135Z,88.07
2018-06-13T02:35:30.146Z,88.01
2018-06-13T02:37:57.142Z,88.30
2018-06-13T02:40:24.141Z,87.66
2018-06-13T02:42:51.258Z,87.89
2018-06-13T02:45:18.362Z,86.81
2018-06-13T02:47:45.466Z,86.61
2018-06-13T02:50:12.468Z,86.99
2018-06-13T02:52:39.593Z,86.55
2018-06-13T02:55:06.830Z,87.13
2018-06-13T02:57:33.833Z,86.25
2018-06-13T03:00:00.872Z,85.32
2018-06-13T03:02:27.909Z,85.95
2018-06-13T03:04:54.955Z,85.44
2018-06-13T03:07:21.979Z,85.42
2018-06-13T03:09:49.232Z,85.44
2018-06-13T03:12:16.315Z,85.39
2018-06-13T03:14:43.330Z,85.82
2018-06-13T03:17:10.344Z,85.91
2018-06-13T03:19:37.372Z,86.32
2018-06-13T03:22:04.463Z,86.99
2018-06-13T03:24:31.471Z,86.87
2018-06-13T03:26:58.461Z,86.88
2018-06-13T03:29:25.569Z,87.72
2018-06-13T03:31:52.578Z,87.18
2018-06-13T03:34:19.649Z,86.84
2018-06-13T03:36:46.773Z,86.62
2018-06-13T03:39:13.822Z,86.09
2018-06-13T03:41:40.895Z,86.88
2018-06-13T03:44:07.919Z,85.64
2018-06-13T03:46:35.091Z,85.62
2018-06-13T03:49:02.185Z,83.74
2018-06-13T03:51:29.277Z,83.55
2018-06-13T03:53:56.316Z,83.60
2018-06-13T03:56:23.313Z,84.18
2018-06-13T03:58:50.333Z,82.74
2018-06-13T04:01:17.415Z,82.25
2018-06-13T04:03:44.529Z,83.26
2018-06-13T04:06:11.641Z,82.83
2018-06-13T04:08:38.676Z,82.28
2018-06-13T04:11:05.784Z,82.39
2018-06-13T04:13:32.875Z,82.22
2018-06-13T04:15:59.898Z,82.30
2018-06-13T04:18:26.924Z,82.29
2018-06-13T04:20:53.944Z,81.59
2018-06-13T04:23:21.014Z,81.31
2018-06-13T04:25:48.037Z,81.44
2018-06-13T04:28:15.046Z,81.65
2018-06-13T04:30:42.146Z,81.39
2018-06-13T04:33:09.178Z,81.25
2018-06-13T04:35:36.195Z,82.12
2018-06-13T04:38:03.219Z,81.17
2018-06-13T04:40:30.334Z,80.97
2018-06-13T04:42:57.446Z,81.46
2018-06-13T04:45:24.618Z,80.67
2018-06-13T04:47:51.802Z,80.72
2018-06-13T04:50:18.809Z,79.73
2018-06-13T04:52:45.935Z,79.88
2018-06-13T04:55:13.030Z,79.94
2018-06-13T04:57:40.056Z,77.96
2018-06-13T05:00:07.232Z,78.03
2018-06-13T05:02:34.492Z,77.47
2018-06-13T05:05:01.682Z,78.15
2018-06-13T05:07:28.718Z,78.26
2018-06-13T05:09:55.740Z,78.60
2018-06-13T05:12:22.791Z,77.78
2018-06-13T05:14:49.827Z,77.57
2018-06-13T05:17:16.826Z,77.39
2018-06-13T05:19:43.835Z,76.53
2018-06-13T05:22:10.985Z,76.64
2018-06-13T05:24:38.065Z,76.84
2018-06-13T05:27:05.075Z,76.94
2018-06-13T05:29:32.114Z,76.97
2018-06-13T05:31:59.170Z,76.10
2018-06-13T05:34:26.247Z,75.36
2018-06-13T05:36:53.374Z,74.30
2018-06-13T05:39:20.431Z,74.84
2018-06-13T05:41:47.792Z,74.51
2018-06-13T05:44:14.807Z,73.96
2018-06-13T05:46:41.852Z,75.37
2018-06-13T05:49:08.875Z,74.17
2018-06-13T05:51:35.911Z,74.51
2018-06-13T05:54:03.044Z,73.23
2018-06-13T05:56:30.074Z,71.14
2018-06-13T05:58:57.167Z,73.08
2018-06-13T06:01:24.416Z,72.03
2018-06-13T06:03:51.667Z,72.31
2018-06-13T06:06:18.774Z,72.48
2018-06-13T06:08:46.002Z,71.95
2018-06-13T06:11:13.005Z,71.06
2018-06-13T06:13:40.035Z,70.70
2018-06-13T06:16:07.072Z,70.27
2018-06-13T06:18:34.171Z,70.27
2018-06-13T06:21:01.911Z,70.59
2018-06-13T06:23:29.111Z,70.70
2018-06-13T06:25:56.224Z,69.77
2018-06-13T06:28:23.253Z,69.53
2018-06-13T06:30:50.363Z,68.80
2018-06-13T06:33:17.387Z,68.36
2018-06-13T06:35:44.484Z,68.08
2018-06-13T06:38:11.660Z,67.86
2018-06-13T06:40:38.782Z,68.29
2018-06-13T06:43:05.785Z,68.60
2018-06-13T06:45:32.859Z,66.96
2018-06-13T06:47:59.886Z,67.07
2018-06-13T06:50:26.910Z,65.83
2018-06-13T06:52:54.055Z,64.51
2018-06-13T06:55:21.155Z,65.35
2018-06-13T06:57:48.266Z,65.36
2018-06-13T07:00:15.579Z,64.42
2018-06-13T07:02:42.736Z,64.44
2018-06-13T07:05:09.892Z,63.53
2018-06-13T07:07:36.944Z,64.45
2018-06-13T07:10:04.081Z,63.97
2018-06-13T07:12:31.221Z,64.39
2018-06-13T07:14:58.276Z,64.72
2018-06-13T07:17:25.395Z,62.48
2018-06-13T07:19:52.615Z,63.50
2018-06-13T07:22:19.645Z,62.78
2018-06-13T07:24:46.674Z,61.50
2018-06-13T07:27:20.602Z,61.91
2018-06-13T07:29:47.717Z,60.28
2018-06-13T07:32:14.823Z,60.64
2018-06-13T07:34:41.932Z,61.30
2018-06-13T07:37:09.026Z,61.09
2018-06-13T07:39:36.061Z,60.96
2018-06-13T07:42:03.200Z,61.57
2018-06-13T07:44:30.197Z,61.10
2018-06-13T07:46:57.239Z,59.64
2018-06-13T07:49:24.277Z,60.05
2018-06-13T07:51:51.295Z,59.63
2018-06-13T07:54:18.404Z,59.72
2018-06-13T07:56:45.573Z,60.54
2018-06-13T07:59:12.671Z,60.56
2018-06-13T08:01:39.774Z,60.42
2018-06-13T08:04:06.810Z,59.29
2018-06-13T08:06:33.909Z,60.86
2018-06-13T08:09:00.932Z,59.66
2018-06-13T08:11:27.945Z,60.11
2018-06-13T08:13:54.957Z,60.43
2018-06-13T08:16:22.095Z,60.04
2018-06-13T08:18:49.426Z,60.84
2018-06-13T08:21:16.435Z,60.47
2018-06-13T08:23:43.571Z,58.58
2018-06-13T08:26:10.715Z,58.87
2018-06-13T08:28:37.698Z,59.33
2018-06-13T08:31:04.818Z,56.67
2018-06-13T08:33:31.907Z,56.86
2018-06-13T08:35:58.993Z,57.60
2018-06-13T08:38:26.027Z,57.74
2018-06-13T08:40:53.218Z,57.77
2018-06-13T08:43:20.569Z,57.58
2018-06-13T08:45:47.699Z,57.99
2018-06-13T08:48:14.734Z,57.09
2018-06-13T08:50:41.758Z,57.01
2018-06-13T08:53:08.925Z,55.25
2018-06-13T08:55:35.939Z,56.15
2018-06-13T08:58:03.019Z,57.08
2018-06-13T09:00:30.163Z,57.90
2018-06-13T09:02:57.229Z,56.13
2018-06-13T09:05:24.449Z,55.37
2018-06-13T09:07:51.701Z,56.33
2018-06-13T09:10:18.796Z,55.88
2018-06-13T09:12:45.973Z,54.37
2018-06-13T09:15:12.994Z,54.20
2018-06-13T09:17:40.096Z,54.88
2018-06-13T09:20:07.527Z,55.25
2018-06-13T09:22:34.584Z,53.50
2018-06-13T09:25:01.820Z,54.55
2018-06-13T09:27:28.932Z,53.93
2018-06-13T09:29:56.055Z,53.95
2018-06-13T09:32:23.141Z,53.59
2018-06-13T09:34:50.177Z,52.69
2018-06-13T09:37:17.210Z,53.16
2018-06-13T09:39:44.313Z,54.02
2018-06-13T09:42:11.342Z,52.50
2018-06-13T09:44:38.672Z,52.93
2018-06-13T09:47:06.904Z,51.17
2018-06-13T09:49:32.746Z,50.90
2018-06-13T09:51:59.768Z,51.38
2018-06-13T09:54:26.906Z,52.54
2018-06-13T09:56:54.016Z,52.19
2018-06-13T09:59:21.141Z,53.24
2018-06-13T10:01:54.428Z,52.33
2018-06-13T10:04:21.570Z,53.37
2018-06-13T10:06:48.659Z,53.01
2018-06-13T10:09:16.158Z,53.73
2018-06-13T10:11:43.673Z,53.93
2018-06-13T10:14:10.784Z,54.64
2018-06-13T10:16:37.919Z,53.16
2018-06-13T10:19:04.948Z,53.79
2018-06-13T10:21:32.053Z,53.71
2018-06-13T10:23:59.162Z,51.59
2018-06-13T10:26:26.289Z,50.48
2018-06-13T10:28:53.424Z,50.16
2018-06-13T10:31:20.533Z,50.81
2018-06-13T10:33:47.547Z,51.27
2018-06-13T10:36:14.559Z,51.68
2018-06-13T10:38:41.572Z,52.43
2018-06-13T10:41:08.603Z,51.77
2018-06-13T10:43:35.632Z,52.50
2018-06-13T10:46:02.668Z,53.45
2018-06-13T10:48:29.698Z,52.37
2018-06-13T10:50:56.807Z,53.61
2018-06-13T10:53:23.875Z,54.20
2018-06-13T10:55:50.974Z,54.38
2018-06-13T10:58:18.016Z,54.53
2018-06-13T11:00:45.073Z,55.53
2018-06-13T11:03:12.385Z,55.84
2018-06-13T11:05:39.408Z,56.54
2018-06-13T11:08:06.510Z,57.80
2018-06-13T11:10:33.629Z,58.87
2018-06-13T11:13:00.806Z,58.78
2018-06-13T11:15:27.815Z,59.25
2018-06-13T11:17:54.862Z,58.58
2018-06-13T11:20:21.948Z,59.28
2018-06-13T11:22:48.913Z,58.27
2018-06-13T11:25:15.961Z,58.45
2018-06-13T11:27:42.983Z,56.14
2018-06-13T11:30:10.010Z,56.89
2018-06-13T11:32:37.213Z,58.03
2018-06-13T11:35:06.402Z,58.58
2018-06-13T11:37:34.065Z,59.38
2018-06-13T11:40:01.091Z,59.70
2018-06-13T11:42:28.115Z,60.84
2018-06-13T11:44:55.453Z,58.74
2018-06-13T11:47:22.474Z,58.65
2018-06-13T11:49:49.513Z,60.33
2018-06-13T11:52:16.954Z,60.76
2018-06-13T11:54:44.042Z,60.89
2018-06-13T11:57:11.234Z,61.90
2018-06-13T11:59:38.523Z,62.74
2018-06-13T12:02:05.539Z,62.04
2018-06-13T12:04:32.746Z,63.59
2018-06-13T12:06:59.776Z,62.65
2018-06-13T12:09:26.912Z,62.65
2018-06-13T12:11:53.927Z,62.59
2018-06-13T12:14:21.041Z,62.36
2018-06-13T12:16:48.221Z,61.81
2018-06-13T12:19:15.258Z,63.29
2018-06-13T12:21:42.310Z,61.86
2018-06-13T12:24:09.355Z,62.15
2018-06-13T12:26:36.434Z,62.66
2018-06-13T12:29:03.689Z,62.37
2018-06-13T12:31:30.762Z,61.21
2018-06-13T12:33:57.981Z,61.67
2018-06-13T12:36:25.037Z,61.74
2018-06-13T12:38:52.486Z,60.09
2018-06-13T12:41:19.513Z,60.08
2018-06-13T12:43:46.621Z,60.87
2018-06-13T12:46:13.658Z,62.01
2018-06-13T12:48:40.682Z,62.34
2018-06-13T12:51:07.705Z,62.58
2018-06-13T12:53:34.725Z,62.71
2018-06-13T12:56:01.917Z,62.44
2018-06-13T12:58:29.018Z,62.26
2018-06-13T13:00:56.102Z,62.63
2018-06-13T13:03:23.412Z,62.51
2018-06-13T13:05:50.453Z,61.67
2018-06-13T13:08:17.503Z,62.19
2018-06-13T13:10:44.509Z,61.95
2018-06-13T13:13:11.821Z,61.96
2018-06-13T13:15:38.895Z,62.13
2018-06-13T13:18:05.920Z,61.74
2018-06-13T13:20:32.990Z,61.70
2018-06-13T13:23:00.142Z,61.88
2018-06-13T13:25:27.165Z,59.85
2018-06-13T13:27:54.313Z,57.67
2018-06-13T13:30:21.328Z,57.75
2018-06-13T13:32:48.329Z,58.59
2018-06-13T13:35:15.368Z,57.37
2018-06-13T13:37:42.509Z,56.22
2018-06-13T13:40:09.898Z,56.75
2018-06-13T13:42:37.006Z,55.65
2018-06-13T13:45:04.113Z,56.28
2018-06-13T13:47:31.129Z,55.98
2018-06-13T13:49:58.701Z,55.78
2018-06-13T13:52:25.725Z,56.63
2018-06-13T13:54:52.749Z,57.43
2018-06-13T13:57:19.864Z,54.52
2018-06-13T13:59:46.971Z,55.93
2018-06-13T14:02:14.097Z,56.15
2018-06-13T14:04:41.289Z,56.07
2018-06-13T14:07:08.398Z,55.36
2018-06-13T14:09:35.413Z,55.73
2018-06-13T14:12:02.539Z,57.04
2018-06-13T14:14:29.791Z,55.35
2018-06-13T14:16:56.963Z,56.44
2018-06-13T14:19:24.089Z,54.01
2018-06-13T14:21:57.975Z,54.57
2018-06-13T14:24:25.094Z,54.24
2018-06-13T14:26:52.109Z,54.16
2018-06-13T14:29:19.279Z,53.81
2018-06-13T14:31:46.470Z,53.13
2018-06-13T14:34:13.594Z,52.08
2018-06-13T14:36:40.649Z,51.92
2018-06-13T14:39:08.956Z,52.94
2018-06-13T14:41:36.019Z,53.19
2018-06-13T14:44:03.109Z,54.25
2018-06-13T14:46:30.212Z,53.82
2018-06-13T14:48:57.329Z,53.83
2018-06-13T14:51:24.473Z,55.52
2018-06-13T14:53:54.221Z,55.14
2018-06-13T14:56:30.760Z,55.27
2018-06-13T14:58:59.259Z,56.16
2018-06-13T15:01:26.394Z,54.83
2018-06-13T15:03:53.492Z,54.23
2018-06-13T15:06:21.007Z,55.25
2018-06-13T15:08:48.148Z,54.53
2018-06-13T15:11:15.259Z,54.66
2018-06-13T15:13:42.279Z,54.88
2018-06-13T15:16:09.399Z,54.63
2018-06-13T15:18:36.417Z,56.05
2018-06-13T15:21:03.459Z,55.92
2018-06-13T15:23:30.695Z,55.59
2018-06-13T15:25:57.784Z,56.58
2018-06-13T15:28:24.800Z,56.37
2018-06-13T15:30:51.966Z,56.14
2018-06-13T15:33:22.738Z,56.14
2018-06-13T15:35:49.747Z,56.76
2018-06-13T15:38:16.890Z,56.91
2018-06-13T15:40:44.334Z,58.17
2018-06-13T15:43:11.421Z,58.22
2018-06-13T15:45:38.445Z,58.74
2018-06-13T15:48:05.593Z,57.45
2018-06-13T15:50:32.673Z,57.41
2018-06-13T15:52:59.687Z,57.19
2018-06-13T15:55:26.759Z,58.20
2018-06-13T15:57:53.800Z,58.64
2018-06-13T16:00:20.826Z,57.99
2018-06-13T16:02:47.992Z,57.89
2018-06-13T16:05:15.046Z,57.91
2018-06-13T16:07:42.121Z,58.51
2018-06-13T16:10:09.158Z,59.08
2018-06-13T16:12:36.270Z,58.60
2018-06-13T16:15:03.309Z,57.46
2018-06-13T16:17:30.483Z,58.34
2018-06-13T16:19:57.532Z,58.34
2018-06-13T16:22:24.643Z,58.42
2018-06-13T16:24:51.806Z,58.20
2018-06-13T16:27:19.002Z,58.85
2018-06-13T16:29:46.097Z,58.58
2018-06-13T16:32:13.402Z,58.98
2018-06-13T16:34:40.509Z,59.77
2018-06-13T16:37:07.540Z,59.57
2018-06-13T16:39:34.577Z,59.84
2018-06-13T16:42:01.815Z,60.85
2018-06-13T16:44:28.850Z,60.65
2018-06-13T16:46:56.332Z,60.70
2018-06-13T16:49:23.429Z,60.63
2018-06-13T16:51:53.725Z,61.24
2018-06-13T16:54:32.237Z,61.39
2018-06-13T16:56:59.339Z,60.64
2018-06-13T16:59:26.622Z,60.75
2018-06-13T17:01:53.847Z,60.79
2018-06-13T17:06:54.598Z,60.47
2018-06-13T17:09:21.705Z,61.37
2018-06-13T17:11:49.291Z,60.76
2018-06-13T17:14:16.306Z,61.41
2018-06-13T17:16:43.417Z,61.05
2018-06-13T17:19:10.563Z,61.35
2018-06-13T17:21:37.674Z,61.49
2018-06-13T17:24:04.698Z,62.30
2018-06-13T17:26:31.808Z,62.08
2018-06-13T17:28:58.999Z,61.42
2018-06-13T17:31:26.242Z,62.20
2018-06-13T17:33:53.397Z,62.47
2018-06-13T17:36:20.537Z,62.30
2018-06-13T17:38:47.571Z,61.79
2018-06-13T17:41:14.679Z,62.03
2018-06-13T17:43:41.714Z,62.31
2018-06-13T17:46:08.799Z,62.55
2018-06-13T17:48:35.817Z,62.45
2018-06-13T17:51:02.999Z,63.23
2018-06-13T17:53:30.131Z,64.10
2018-06-13T17:55:57.149Z,64.88
2018-06-13T17:58:24.169Z,65.17
2018-06-13T18:00:51.194Z,65.71
2018-06-13T18:03:18.643Z,66.07
2018-06-13T18:05:45.653Z,66.12
2018-06-13T18:08:12.669Z,67.04
2018-06-13T18:10:39.806Z,67.48
2018-06-13T18:13:06.898Z,67.98
2018-06-13T18:15:33.982Z,68.20
2018-06-13T18:18:01.080Z,68.77
2018-06-13T18:20:28.109Z,68.95
2018-06-13T18:22:55.170Z,69.77
2018-06-13T18:25:22.214Z,69.33
2018-06-13T18:27:49.303Z,69.63
2018-06-13T18:30:16.406Z,70.25
2018-06-13T18:32:43.598Z,70.14
2018-06-13T18:35:10.717Z,69.74
2018-06-13T18:37:37.824Z,70.03
2018-06-13T18:40:04.931Z,70.17
2018-06-13T18:42:31.960Z,70.11
2018-06-13T18:44:59.006Z,70.38
2018-06-13T18:47:26.291Z,70.80
2018-06-13T18:49:53.530Z,70.09
2018-06-13T18:52:21.094Z,70.02
2018-06-13T18:54:48.118Z,70.24
2018-06-13T18:57:15.126Z,70.26
2018-06-13T18:59:42.708Z,70.24
2018-06-13T19:02:09.725Z,69.90
2018-06-13T19:04:36.865Z,70.34
2018-06-13T19:07:04.071Z,71.05
2018-06-13T19:09:31.189Z,72.40
2018-06-13T19:11:58.317Z,72.30
2018-06-13T19:14:25.402Z,72.99
2018-06-13T19:16:52.410Z,72.20
2018-06-13T19:19:19.829Z,72.49
2018-06-13T19:21:46.935Z,72.98
2018-06-13T19:24:13.966Z,73.08
2018-06-13T19:26:41.065Z,73.30
2018-06-13T19:29:08.105Z,71.27
2018-06-13T19:31:35.301Z,71.56
2018-06-13T19:34:02.484Z,71.59
2018-06-13T19:36:29.559Z,70.52
2018-06-13T19:38:56.558Z,69.63
2018-06-13T19:41:23.569Z,69.95
2018-06-13T19:43:50.678Z,69.35
2018-06-13T19:46:17.694Z,69.75
2018-06-13T19:48:46.337Z,69.43
2018-06-13T19:51:13.516Z,69.49
2018-06-13T19:53:46.211Z,69.52
2018-06-13T19:56:14.662Z,69.68
2018-06-13T19:58:41.750Z,70.35
2018-06-13T20:01:08.879Z,69.77
2018-06-13T20:03:41.569Z,69.86
2018-06-13T20:06:09.010Z,69.85
2018-06-13T20:08:36.456Z,69.99
2018-06-13T20:11:03.616Z,69.84
2018-06-13T20:13:36.475Z,70.02
2018-06-13T20:16:10.480Z,69.85
2018-06-13T20:18:46.304Z,69.59
2018-06-13T20:21:13.469Z,70.15
2018-06-13T20:23:41.653Z,69.82
2018-06-13T20:26:14.534Z,70.22
2018-06-13T20:28:47.234Z,69.56
2018-06-13T20:31:32.372Z,69.14
2018-06-13T20:33:59.641Z,68.85
2018-06-13T20:36:26.732Z,69.57
2018-06-13T20:38:53.770Z,68.88
2018-06-13T20:41:20.778Z,68.84
2018-06-13T20:43:47.869Z,68.47
2018-06-13T20:46:15.050Z,68.38
2018-06-13T20:48:42.066Z,68.31
2018-06-13T20:51:09.155Z,68.88
2018-06-13T20:53:36.119Z,68.10
2018-06-13T20:56:03.145Z,68.14
2018-06-13T20:58:30.334Z,68.41
2018-06-13T21:00:57.498Z,68.43
2018-06-13T21:03:24.601Z,68.70
2018-06-13T21:05:51.619Z,69.04
2018-06-13T21:08:18.706Z,68.50
2018-06-13T21:10:45.725Z,68.95
2018-06-13T21:13:13.093Z,68.57
2018-06-13T21:15:40.375Z,68.54
2018-06-13T21:18:07.385Z,68.75
2018-06-13T21:20:34.670Z,68.93
2018-06-13T21:23:01.711Z,69.41
2018-06-13T21:25:29.076Z,68.63
2018-06-13T21:27:56.101Z,69.58
2018-06-13T21:30:23.386Z,69.50
2018-06-13T21:32:50.477Z,69.56
2018-06-13T21:35:17.579Z,69.83
2018-06-13T21:37:44.919Z,69.74
2018-06-13T21:40:11.948Z,69.45
2018-06-13T21:42:39.389Z,69.64
2018-06-13T21:45:06.516Z,70.40
2018-06-13T21:47:33.609Z,69.86
2018-06-13T21:50:01.453Z,69.89
2018-06-13T21:52:28.843Z,70.02
2018-06-13T21:54:55.874Z,69.79
2018-06-13T21:57:23.053Z,70.18
2018-06-13T21:59:50.168Z,70.34
2018-06-13T22:02:17.249Z,70.61
2018-06-13T22:04:44.341Z,71.09
2018-06-13T22:07:11.359Z,71.28
2018-06-13T22:09:38.462Z,71.33
2018-06-13T22:12:05.588Z,71.22
2018-06-13T22:14:32.627Z,71.23
2018-06-13T22:16:59.627Z,71.27
2018-06-13T22:19:26.841Z,71.35
2018-06-13T22:21:53.896Z,71.33
2018-06-13T22:24:20.921Z,71.50
2018-06-13T22:26:47.935Z,71.79
2018-06-13T22:29:15.068Z,72.16
2018-06-13T22:31:42.159Z,72.13
2018-06-13T22:34:09.260Z,72.25
2018-06-13T22:36:36.394Z,72.53
2018-06-13T22:39:06.103Z,72.08
2018-06-13T22:41:33.105Z,72.92
2018-06-13T22:44:00.204Z,73.63
2018-06-13T22:46:27.309Z,73.76
2018-06-13T22:48:54.707Z,74.14
2018-06-13T22:51:21.822Z,74.37
2018-06-13T22:53:48.946Z,74.63
2018-06-13T22:56:16.174Z,74.37
2018-06-13T22:58:43.262Z,74.19
2018-06-13T23:01:12.017Z,74.44
2018-06-13T23:03:39.234Z,74.45
2018-06-13T23:06:07.520Z,74.49
2018-06-13T23:08:35.402Z,74.68
2018-06-13T23:11:02.573Z,74.49
2018-06-13T23:13:29.593Z,74.64
2018-06-13T23:15:56.640Z,74.64
2018-06-13T23:18:24.510Z,75.14
2018-06-13T23:20:51.514Z,74.94
2018-06-13T23:23:19.466Z,75.00
2018-06-13T23:25:46.466Z,75.29
2018-06-13T23:28:13.474Z,75.70
2018-06-13T23:30:40.582Z,75.46
2018-06-13T23:33:07.713Z,75.42
2018-06-13T23:35:34.721Z,75.37
2018-06-13T23:38:02.009Z,75.72
2018-06-13T23:40:29.039Z,75.49
2018-06-13T23:43:01.003Z,75.95
2018-06-13T23:45:29.359Z,75.58
2018-06-13T23:48:00.180Z,75.97
2018-06-13T23:50:31.279Z,75.80
2018-06-13T23:52:58.474Z,75.90
2018-06-13T23:55:28.176Z,76.55
2018-06-13T23:57:55.350Z,76.54
